Time;durP1;ratioP1;P1;durP2;ratioP2;P2;SDS_P1;SDS_P2;PMS_P1;PMS_P2;Temp;Humidity;BMP_temperature;BMP_pressure;BME280_temperature;BME280_humidity;BME280_pressure;Samples;Min_cycle;Max_cycle;Signal;HPM_P1;HPM_P2
2021/10/29 00:35:15;;;;;;;29.97;27.27;;;5.50;99.90;;;;;;5003449;28;20679;-96
2021/10/29 00:37:52;;;;;;;31.03;28.03;;;5.60;99.90;;;;;;4986798;28;20625;-95
2021/10/29 00:43:29;;;;;;;30.40;27.50;;;5.40;99.90;;;;;;5001815;28;20717;-96
2021/10/29 00:52:44;;;;;;;32.37;29.47;;;5.40;99.90;;;;;;4992818;28;20664;-95
2021/10/29 00:55:16;;;;;;;30.17;27.30;;;5.40;99.90;;;;;;4988606;28;20623;-96
2021/10/29 00:57:44;;;;;;;29.50;27.00;;;5.30;99.90;;;;;;4976314;28;20664;-95
2021/10/29 01:00:41;;;;;;;27.30;25.03;;;5.30;99.90;;;;;;5006356;28;20643;-96
2021/10/29 01:42:02;;;;;;;31.77;28.60;;;5.10;99.90;;;;;;5657428;23;20656;-95
2021/10/29 01:44:31;;;;;;;30.87;27.97;;;5.10;99.90;;;;;;5051327;23;21282;-95
2021/10/29 01:47:04;;;;;;;31.17;28.37;;;5.00;99.90;;;;;;5016442;28;20716;-95
2021/10/29 01:49:31;;;;;;;31.20;28.50;;;5.00;99.90;;;;;;5013913;28;20655;-94
2021/10/29 02:02:36;;;;;;;31.10;28.00;;;5.10;99.90;;;;;;5685476;23;20683;-94
2021/10/29 02:05:03;;;;;;;32.97;29.93;;;5.10;99.90;;;;;;4991970;28;20706;-93
2021/10/29 02:07:31;;;;;;;29.47;26.80;;;5.10;99.90;;;;;;4990803;28;20679;-94
2021/10/29 02:09:58;;;;;;;33.40;30.50;;;5.00;99.90;;;;;;4993407;28;20640;-94
2021/10/29 02:12:27;;;;;;;31.50;28.60;;;5.00;99.90;;;;;;4991322;28;20736;-94
2021/10/29 02:15:03;;;;;;;28.50;26.00;;;5.00;99.90;;;;;;4992601;28;20628;-96
2021/10/29 02:17:32;;;;;;;31.10;28.30;;;4.90;99.90;;;;;;4993005;28;20636;-92
2021/10/29 02:20:00;;;;;;;29.07;26.50;;;4.90;99.90;;;;;;4991038;28;21048;-90
2021/10/29 02:22:27;;;;;;;27.90;25.30;;;4.80;99.90;;;;;;4987616;28;21044;-90
2021/10/29 02:24:55;;;;;;;26.97;24.57;;;4.90;99.90;;;;;;4984822;28;20678;-90
2021/10/29 02:27:21;;;;;;;25.67;23.43;;;4.90;99.90;;;;;;4989313;28;20703;-90
2021/10/29 02:29:48;;;;;;;26.90;24.50;;;4.90;99.90;;;;;;4989627;28;20651;-90
2021/10/29 02:32:15;;;;;;;27.63;25.20;;;5.00;99.90;;;;;;4990179;28;20643;-90
2021/10/29 02:34:44;;;;;;;26.47;24.07;;;4.90;99.90;;;;;;4989731;28;20851;-94
2021/10/29 02:37:11;;;;;;;26.20;23.80;;;4.80;99.90;;;;;;4991124;28;20633;-95
2021/10/29 02:39:38;;;;;;;25.47;23.37;;;4.80;99.90;;;;;;4991932;28;20827;-95
2021/10/29 02:42:05;;;;;;;26.07;23.87;;;4.70;99.90;;;;;;4990006;28;21234;-93
2021/10/29 02:44:33;;;;;;;28.07;25.67;;;4.60;99.90;;;;;;4990808;28;21010;-94
2021/10/29 02:47:01;;;;;;;28.70;26.07;;;4.60;99.90;;;;;;4993142;28;21213;-95
2021/10/29 02:49:29;;;;;;;27.00;24.70;;;4.60;99.90;;;;;;4993315;28;21270;-94
2021/10/29 02:51:57;;;;;;;26.70;24.50;;;4.50;99.90;;;;;;4994404;28;20637;-94
2021/10/29 02:54:24;;;;;;;26.00;23.90;;;4.50;99.90;;;;;;4991335;28;20643;-94
2021/10/29 02:56:52;;;;;;;32.50;27.13;;;4.40;99.90;;;;;;4990520;28;21332;-94
2021/10/29 02:59:19;;;;;;;95.20;35.03;;;4.50;99.90;;;;;;4988998;28;20664;-93
2021/10/29 03:01:46;;;;;;;29.40;26.77;;;4.50;99.90;;;;;;4976658;28;20747;-93
2021/10/29 03:04:13;;;;;;;27.77;25.33;;;4.50;99.90;;;;;;4989359;28;20665;-94
2021/10/29 03:06:42;;;;;;;33.07;26.90;;;4.40;99.90;;;;;;4984751;28;21255;-93
2021/10/29 03:09:10;;;;;;;27.73;25.33;;;4.50;99.90;;;;;;4992005;28;20669;-92
2021/10/29 03:11:37;;;;;;;89.10;25.83;;;4.50;99.90;;;;;;4985857;28;20636;-93
2021/10/29 03:14:05;;;;;;;105.50;28.40;;;4.50;99.90;;;;;;4989004;28;20637;-93
2021/10/29 03:16:32;;;;;;;49.53;27.60;;;4.50;99.90;;;;;;4988631;28;20686;-92
2021/10/29 03:18:59;;;;;;;159.37;34.50;;;4.50;99.90;;;;;;4991094;28;20660;-93
2021/10/29 03:21:26;;;;;;;169.37;35.30;;;4.50;99.90;;;;;;5002944;28;20631;-93
2021/10/29 03:23:55;;;;;;;143.43;34.17;;;4.40;99.90;;;;;;5005120;28;20672;-93
2021/10/29 03:26:25;;;;;;;159.63;36.87;;;4.50;99.90;;;;;;5005526;28;20730;-92
2021/10/29 03:34:20;;;;;;;379.17;59.10;;;4.40;99.90;;;;;;5008569;28;20624;-94
2021/10/29 03:36:48;;;;;;;241.57;40.33;;;4.40;99.90;;;;;;5014831;28;20658;-92
2021/10/29 03:39:18;;;;;;;351.67;53.37;;;4.50;99.90;;;;;;5008690;28;20640;-94
2021/10/29 03:41:52;;;;;;;253.93;36.57;;;4.40;99.90;;;;;;5014831;28;21372;-93
2021/10/29 03:44:23;;;;;;;367.93;56.07;;;4.40;99.90;;;;;;5008254;28;20682;-93
2021/10/29 03:46:52;;;;;;;353.10;52.40;;;4.40;99.90;;;;;;5007725;28;21246;-93
2021/10/29 03:49:24;;;;;;;289.70;40.30;;;4.40;99.90;;;;;;5008214;28;20655;-92
2021/10/29 03:51:54;;;;;;;212.20;33.80;;;4.50;99.90;;;;;;5014039;28;21203;-93
2021/10/29 03:54:25;;;;;;;197.17;31.37;;;4.60;99.90;;;;;;5014337;28;20659;-93
2021/10/29 03:56:58;;;;;;;226.90;32.13;;;4.50;99.90;;;;;;5014802;28;20754;-93
2021/10/29 03:59:25;;;;;;;188.00;29.67;;;4.40;99.90;;;;;;5008262;28;20659;-93
2021/10/29 04:02:05;;;;;;;189.03;30.03;;;4.50;99.90;;;;;;5009760;28;21063;-94
2021/10/29 04:04:32;;;;;;;224.23;32.87;;;4.40;99.90;;;;;;5012239;28;20665;-93
2021/10/29 04:07:00;;;;;;;128.13;30.50;;;4.40;99.90;;;;;;5009861;28;20641;-96
2021/10/29 04:09:30;;;;;;;160.27;38.07;;;4.30;99.90;;;;;;5008372;28;20662;-93
2021/10/29 04:11:58;;;;;;;69.27;29.03;;;4.30;99.90;;;;;;5007993;28;20730;-92
2021/10/29 04:14:28;;;;;;;66.50;27.77;;;4.40;99.90;;;;;;5009163;28;21123;-94
2021/10/29 04:16:55;;;;;;;103.13;30.00;;;4.40;99.90;;;;;;5012828;28;20757;-93
2021/10/29 04:19:22;;;;;;;39.93;24.37;;;4.40;99.90;;;;;;5010792;28;20638;-94
2021/10/29 04:21:50;;;;;;;97.47;33.30;;;4.40;99.90;;;;;;5016155;28;20663;-93
2021/10/29 04:24:17;;;;;;;51.30;26.97;;;4.40;99.90;;;;;;5021819;28;20647;-94
2021/10/29 04:26:44;;;;;;;108.20;32.73;;;4.40;99.90;;;;;;5034485;28;20679;-94
2021/10/29 04:29:24;;;;;;;46.93;24.80;;;4.40;99.90;;;;;;5032046;28;20630;-93
2021/10/29 04:31:51;;;;;;;197.17;41.87;;;4.40;99.90;;;;;;5355737;23;20671;-95
2021/10/29 04:34:19;;;;;;;82.80;24.67;;;4.40;99.90;;;;;;5029754;28;20634;-92
2021/10/29 04:36:47;;;;;;;124.60;29.00;;;4.40;99.90;;;;;;5021090;28;20746;-93
2021/10/29 04:39:15;;;;;;;100.03;24.50;;;4.50;99.90;;;;;;5014685;28;20707;-93
2021/10/29 04:41:47;;;;;;;89.63;24.93;;;4.40;99.90;;;;;;5009430;28;20648;-92
2021/10/29 04:44:15;;;;;;;134.37;26.70;;;4.40;99.90;;;;;;5009392;28;20684;-94
2021/10/29 04:46:44;;;;;;;152.33;29.93;;;4.40;99.90;;;;;;5005073;28;20967;-93
2021/10/29 04:49:11;;;;;;;158.63;26.67;;;4.40;99.90;;;;;;4988756;28;20661;-96
2021/10/29 04:51:41;;;;;;;169.00;27.90;;;4.40;99.90;;;;;;5000123;28;20678;-95
2021/10/29 04:54:09;;;;;;;175.57;27.23;;;4.40;99.90;;;;;;4995329;28;20666;-95
2021/10/29 04:56:38;;;;;;;162.20;26.40;;;4.50;99.90;;;;;;5007952;28;20743;-96
2021/10/29 04:59:06;;;;;;;77.57;24.10;;;4.40;99.90;;;;;;5007692;28;20884;-93
2021/10/29 05:01:46;;;;;;;99.80;24.63;;;4.30;99.90;;;;;;5011105;28;20656;-95
2021/10/29 05:04:20;;;;;;;129.77;23.30;;;4.30;99.90;;;;;;5003609;28;20661;-95
2021/10/29 05:06:47;;;;;;;110.13;23.43;;;4.30;99.90;;;;;;4993487;28;20649;-93
2021/10/29 05:09:16;;;;;;;321.13;40.30;;;4.30;99.90;;;;;;4989082;28;20652;-93
2021/10/29 05:11:43;;;;;;;247.50;30.03;;;4.20;99.90;;;;;;4996185;28;21241;-93
2021/10/29 05:14:10;;;;;;;130.73;27.70;;;4.20;99.90;;;;;;4991836;28;21256;-94
2021/10/29 05:16:45;;;;;;;163.83;28.77;;;4.20;99.90;;;;;;4985961;28;21254;-93
2021/10/29 05:19:15;;;;;;;321.27;39.53;;;4.20;99.90;;;;;;4990108;28;20663;-94
2021/10/29 05:21:42;;;;;;;264.53;35.07;;;4.20;99.90;;;;;;4987917;28;20691;-93
2021/10/29 05:24:09;;;;;;;269.53;33.87;;;4.30;99.90;;;;;;4991541;28;20714;-93
2021/10/29 05:26:37;;;;;;;357.93;39.00;;;4.20;99.90;;;;;;4996549;28;20742;-93
2021/10/29 05:29:05;;;;;;;209.67;31.23;;;4.10;99.90;;;;;;4993174;28;20695;-93
2021/10/29 05:31:32;;;;;;;195.37;33.17;;;4.20;99.90;;;;;;4997735;28;20655;-93
2021/10/29 05:34:01;;;;;;;210.10;29.40;;;4.20;99.90;;;;;;4996528;28;20762;-93
2021/10/29 05:36:30;;;;;;;356.80;39.20;;;4.20;99.90;;;;;;4997009;28;20643;-94
2021/10/29 05:38:57;;;;;;;195.47;31.73;;;4.10;99.90;;;;;;4993781;28;20617;-94
2021/10/29 05:41:24;;;;;;;123.50;25.10;;;4.20;99.90;;;;;;4997398;28;21058;-93
2021/10/29 05:43:51;;;;;;;72.63;20.50;;;4.20;99.90;;;;;;4996031;28;20644;-92
2021/10/29 05:46:22;;;;;;;163.60;33.53;;;4.20;99.90;;;;;;5000231;28;20669;-92
2021/10/29 05:48:49;;;;;;;84.43;24.40;;;4.20;99.90;;;;;;4994481;28;20654;-93
2021/10/29 05:51:34;;;;;;;75.27;21.80;;;4.30;99.90;;;;;;4995588;28;20774;-94
2021/10/29 05:54:10;;;;;;;222.77;31.20;;;4.20;99.90;;;;;;4995780;28;20647;-94
2021/10/29 05:56:42;;;;;;;254.20;30.53;;;4.20;99.90;;;;;;4998918;28;20638;-94
2021/10/29 05:59:10;;;;;;;217.57;29.33;;;4.20;99.90;;;;;;4999123;28;20678;-93
2021/10/29 06:04:55;;;;;;;229.10;32.53;;;4.20;99.90;;;;;;4978171;28;21348;-94
2021/10/29 06:07:47;;;;;;;229.60;31.10;;;4.10;99.90;;;;;;4998193;28;20710;-94
2021/10/29 06:10:17;;;;;;;132.97;26.37;;;4.20;99.90;;;;;;4996720;28;20650;-95
2021/10/29 06:12:51;;;;;;;162.97;30.20;;;4.20;99.90;;;;;;4997563;28;20666;-94
2021/10/29 06:15:19;;;;;;;173.90;30.13;;;4.20;99.90;;;;;;5000750;28;20743;-95
2021/10/29 06:18:06;;;;;;;89.80;23.50;;;4.10;99.90;;;;;;5005711;28;20726;-95
2021/10/29 06:20:42;;;;;;;70.03;24.13;;;4.20;99.90;;;;;;4998887;28;20671;-94
2021/10/29 06:23:14;;;;;;;180.70;27.93;;;4.20;99.90;;;;;;5002075;28;20749;-96
2021/10/29 06:26:11;;;;;;;52.70;19.07;;;4.30;99.90;;;;;;5001237;28;20663;-95
2021/10/29 06:28:41;;;;;;;164.37;27.27;;;4.30;99.90;;;;;;5002481;28;20631;-95
2021/10/29 06:31:33;;;;;;;113.37;25.07;;;4.30;99.90;;;;;;4998344;28;20709;-96
2021/10/29 06:34:01;;;;;;;168.60;25.63;;;4.40;99.90;;;;;;4999163;28;20640;-94
2021/10/29 06:36:35;;;;;;;152.53;26.10;;;4.50;99.90;;;;;;4995721;28;20666;-93
2021/10/29 06:41:52;;;;;;;163.70;25.40;;;4.40;99.90;;;;;;4996611;28;20652;-94
2021/10/29 06:44:27;;;;;;;119.37;24.03;;;4.40;99.90;;;;;;4995543;28;20643;-93
2021/10/29 06:47:32;;;;;;;56.57;20.77;;;4.40;99.90;;;;;;4997039;28;20644;-94
2021/10/29 07:00:59;;;;;;;165.33;23.83;;;4.70;99.90;;;;;;4999994;23;20679;-93
2021/10/29 07:42:04;;;;;;;163.33;24.77;;;5.40;99.90;;;;;;4976503;28;20658;-94
2021/10/29 07:44:43;;;;;;;606.53;48.77;;;5.60;99.90;;;;;;4976595;28;20955;-94
2021/10/29 07:47:10;;;;;;;318.77;30.87;;;5.70;99.90;;;;;;4990806;28;20625;-95
2021/10/29 07:49:39;;;;;;;105.63;21.03;;;5.90;99.90;;;;;;4993595;28;20656;-96
2021/10/29 07:52:09;;;;;;;130.53;21.53;;;5.90;99.90;;;;;;4978791;28;20697;-94
2021/10/29 07:54:36;;;;;;;92.67;19.50;;;5.90;99.90;;;;;;4980774;28;20700;-94
2021/10/29 07:57:04;;;;;;;94.20;20.30;;;5.80;99.90;;;;;;4979603;28;20625;-94
2021/10/29 07:59:32;;;;;;;33.83;15.40;;;5.80;99.90;;;;;;4980009;28;20732;-94
2021/10/29 08:04:59;;;;;;;23.73;13.83;;;6.00;99.90;;;;;;4973945;28;20625;-93
2021/10/29 08:07:34;;;;;;;22.50;14.87;;;6.10;99.90;;;;;;4977552;28;20633;-95
2021/10/29 08:10:11;;;;;;;15.33;14.20;;;6.20;99.90;;;;;;4971744;28;20642;-94
2021/10/29 08:12:44;;;;;;;13.63;12.53;;;6.50;99.90;;;;;;4980960;28;20629;-94
2021/10/29 08:15:18;;;;;;;13.33;12.33;;;6.80;99.90;;;;;;4978858;28;20692;-93
2021/10/29 08:23:19;;;;;;;14.87;13.70;;;7.10;99.90;;;;;;4983107;28;20622;-94
2021/10/29 08:25:48;;;;;;;12.87;11.93;;;7.20;99.90;;;;;;4978610;28;20665;-93
2021/10/29 08:28:17;;;;;;;12.60;11.53;;;7.30;99.90;;;;;;4988374;28;20633;-94
2021/10/29 08:30:53;;;;;;;13.20;11.90;;;7.60;99.90;;;;;;4995546;28;20662;-94
2021/10/29 08:33:26;;;;;;;12.10;11.20;;;7.60;99.90;;;;;;4995103;28;20659;-93
2021/10/29 08:35:54;;;;;;;12.37;11.40;;;7.60;99.90;;;;;;4997897;28;20691;-92
2021/10/29 08:38:24;;;;;;;13.23;12.03;;;7.50;99.90;;;;;;4996708;28;20602;-94
2021/10/29 08:40:54;;;;;;;12.23;11.30;;;7.60;99.90;;;;;;4986969;28;20661;-94
2021/10/29 08:43:22;;;;;;;12.40;11.40;;;7.60;99.90;;;;;;4980178;28;20642;-95
2021/10/29 08:45:54;;;;;;;12.03;11.13;;;7.70;99.90;;;;;;4977305;28;20685;-93
2021/10/29 08:48:45;;;;;;;13.60;12.70;;;7.70;99.90;;;;;;4977395;28;20720;-95
2021/10/29 08:51:13;;;;;;;15.20;14.10;;;7.80;99.90;;;;;;4974670;28;20657;-94
2021/10/29 08:53:43;;;;;;;13.97;12.87;;;7.70;99.90;;;;;;4979346;28;20700;-94
2021/10/29 08:56:13;;;;;;;13.10;11.90;;;8.00;99.90;;;;;;4983784;28;20764;-95
2021/10/29 08:59:08;;;;;;;13.70;12.40;;;8.30;99.90;;;;;;4981651;28;20687;-95
2021/10/29 10:08:35;;;;;;;14.67;13.30;;;13.30;99.90;;;;;;4991138;28;20637;-95
2021/10/29 10:11:30;;;;;;;14.60;13.20;;;13.20;99.90;;;;;;4985620;28;21219;-95
2021/10/29 10:14:02;;;;;;;14.67;13.40;;;13.40;99.90;;;;;;4963086;28;20641;-95
2021/10/29 10:16:31;;;;;;;13.63;12.23;;;13.50;99.90;;;;;;4986932;28;20663;-95
2021/10/29 11:10:28;;;;;;;13.60;12.17;;;16.40;99.90;;;;;;5006364;28;20597;-96
2021/10/29 11:13:11;;;;;;;12.83;11.60;;;16.50;99.90;;;;;;5008558;28;20771;-96
2021/10/29 11:15:41;;;;;;;12.40;11.20;;;16.60;99.90;;;;;;4995823;28;20722;-96
2021/10/29 11:19:06;;;;;;;12.90;11.77;;;16.70;99.90;;;;;;4970194;28;20625;-96
2021/10/29 11:22:34;;;;;;;12.40;11.10;;;17.10;99.90;;;;;;4983656;28;20680;-96
2021/10/29 11:25:06;;;;;;;11.27;10.17;;;16.90;99.90;;;;;;4980963;28;20654;-96
2021/10/29 11:27:49;;;;;;;12.40;11.40;;;17.10;99.90;;;;;;5006083;28;20680;-96
2021/10/29 12:11:46;;;;;;;10.90;10.00;;;19.70;95.60;;;;;;5016321;28;20615;-96
2021/10/29 12:14:16;;;;;;;10.10;9.30;;;20.00;96.30;;;;;;5012297;28;20717;-96
2021/10/29 12:20:24;;;;;;;9.70;8.90;;;20.90;92.10;;;;;;5016055;28;20572;-96
2021/10/29 12:26:12;;;;;;;9.27;8.57;;;20.60;93.20;;;;;;5004278;28;20723;-96
2021/10/29 12:28:47;;;;;;;9.00;8.13;;;20.90;92.20;;;;;;5017786;28;20697;-96
2021/10/29 12:31:23;;;;;;;8.57;7.87;;;21.40;92.30;;;;;;5026229;28;20639;-96
2021/10/29 12:37:20;;;;;;;9.90;9.20;;;22.20;86.80;;;;;;5021552;28;20646;-96
2021/10/29 13:19:34;;;;;;;6.37;5.77;;;22.00;82.30;;;;;;4980708;28;20619;-96
2021/10/29 13:23:20;;;;;;;7.47;6.80;;;22.00;83.00;;;;;;4963809;28;20687;-96
2021/10/29 13:26:23;;;;;;;7.03;6.53;;;21.90;79.80;;;;;;4981702;28;20642;-96
2021/10/29 13:28:56;;;;;;;7.53;6.80;;;21.30;80.20;;;;;;5008728;28;20636;-96
2021/10/29 13:35:05;;;;;;;7.37;6.60;;;21.40;80.50;;;;;;5014406;28;20632;-96
2021/10/29 14:33:21;;;;;;;7.20;6.43;;;22.80;69.80;;;;;;5005329;28;20601;-96
2021/10/29 14:36:23;;;;;;;7.73;6.93;;;22.60;68.30;;;;;;5001414;28;20644;-96
2021/10/29 14:42:50;;;;;;;7.00;6.40;;;22.10;70.20;;;;;;5022147;28;20651;-96
2021/10/29 15:03:00;;;;;;;6.00;5.50;;;23.20;67.40;;;;;;5011793;28;20607;-96
2021/10/29 15:42:51;;;;;;;13.77;5.80;;;16.60;99.90;;;;;;4986275;28;20620;-96
2021/10/29 15:45:35;;;;;;;7.60;5.07;;;15.70;99.90;;;;;;4998879;28;20656;-96
2021/10/29 15:48:09;;;;;;;5.47;4.53;;;15.40;99.90;;;;;;4990308;28;20657;-96
2021/10/29 15:50:44;;;;;;;7.47;5.67;;;15.10;99.90;;;;;;4988861;28;20639;-96
2021/10/29 15:53:21;;;;;;;7.50;5.40;;;14.80;99.90;;;;;;4981633;28;20629;-96
2021/10/29 15:55:55;;;;;;;5.43;4.80;;;14.60;99.90;;;;;;4988920;28;20724;-96
2021/10/29 15:58:38;;;;;;;11.37;4.57;;;14.20;99.90;;;;;;4988779;28;21056;-96
2021/10/29 16:01:14;;;;;;;7.87;4.00;;;13.80;99.90;;;;;;4981675;28;20683;-96
2021/10/29 16:17:35;;;;;;;8.53;4.63;;;12.50;99.90;;;;;;4966284;28;20625;-96
2021/10/29 16:20:03;;;;;;;4.27;3.90;;;12.30;99.90;;;;;;4967998;28;20648;-95
2021/10/29 16:22:35;;;;;;;17.10;14.87;;;12.20;99.90;;;;;;4965152;28;20625;-96
2021/10/29 16:25:06;;;;;;;8.07;6.70;;;12.00;99.90;;;;;;4971135;28;20697;-96
2021/10/29 16:27:44;;;;;;;6.57;5.93;;;11.80;99.90;;;;;;4988802;28;20676;-96
2021/10/29 16:30:22;;;;;;;6.03;5.33;;;11.70;99.90;;;;;;4990430;28;20625;-96
2021/10/29 16:35:35;;;;;;;6.80;5.63;;;11.40;99.90;;;;;;4976774;28;20650;-94
2021/10/29 16:38:03;;;;;;;10.10;9.13;;;11.30;99.90;;;;;;4980621;28;20646;-96
2021/10/29 16:40:30;;;;;;;8.90;8.00;;;11.10;99.90;;;;;;4963504;28;20641;-95
2021/10/29 16:42:57;;;;;;;8.40;6.67;;;10.90;99.90;;;;;;4965016;28;20637;-96
2021/10/29 16:45:27;;;;;;;6.30;5.70;;;10.90;99.90;;;;;;4975553;28;20669;-95
2021/10/29 16:47:55;;;;;;;9.80;8.90;;;10.80;99.90;;;;;;4989327;28;20730;-95
2021/10/29 16:50:30;;;;;;;10.30;9.10;;;10.80;99.90;;;;;;4985987;28;20626;-96
2021/10/29 16:53:03;;;;;;;8.00;7.30;;;10.70;99.90;;;;;;4951347;28;20719;-96
2021/10/29 16:55:31;;;;;;;7.40;5.83;;;10.50;99.90;;;;;;4971181;28;20668;-95
2021/10/29 16:57:58;;;;;;;11.67;10.40;;;10.50;99.90;;;;;;4971088;28;21070;-95
2021/10/29 17:00:31;;;;;;;10.80;9.70;;;10.60;99.90;;;;;;4972193;28;20644;-96
2021/10/29 17:02:58;;;;;;;10.60;8.63;;;10.50;99.90;;;;;;4969502;28;20688;-96
2021/10/29 17:05:25;;;;;;;12.23;8.93;;;10.30;99.90;;;;;;4967544;28;20708;-94
2021/10/29 17:07:52;;;;;;;57.93;40.17;;;10.30;99.90;;;;;;4982105;28;21056;-93
2021/10/29 17:10:20;;;;;;;14.47;11.30;;;10.10;99.90;;;;;;4961382;28;20701;-90
2021/10/29 17:12:55;;;;;;;7.03;5.63;;;10.00;99.90;;;;;;4963325;28;20657;-96
2021/10/29 17:15:22;;;;;;;5.37;4.97;;;9.90;99.90;;;;;;4967239;28;21290;-94
2021/10/29 17:17:53;;;;;;;4.40;4.00;;;9.90;99.90;;;;;;4970677;28;20637;-94
2021/10/29 17:20:22;;;;;;;6.97;4.80;;;9.80;99.90;;;;;;4968449;28;20644;-96
2021/10/29 17:22:56;;;;;;;9.57;4.57;;;9.80;99.90;;;;;;4969689;28;20728;-94
2021/10/29 17:25:23;;;;;;;7.70;6.37;;;9.70;99.90;;;;;;4968461;28;20721;-95
2021/10/29 17:27:54;;;;;;;9.83;7.77;;;9.60;99.90;;;;;;4974428;28;20665;-95
2021/10/29 17:30:24;;;;;;;5.63;5.13;;;9.60;99.90;;;;;;4962805;28;20734;-95
2021/10/29 17:32:54;;;;;;;8.67;5.27;;;9.60;99.90;;;;;;4969881;28;21274;-94
2021/10/29 17:35:22;;;;;;;13.60;8.60;;;9.50;99.90;;;;;;4976578;28;20633;-94
2021/10/29 17:37:50;;;;;;;10.30;9.30;;;9.40;99.90;;;;;;4969908;28;20642;-95
2021/10/29 17:40:19;;;;;;;11.00;9.90;;;9.30;99.90;;;;;;4971408;28;20633;-95
2021/10/29 17:42:53;;;;;;;7.07;6.33;;;9.30;99.90;;;;;;4971913;28;20696;-95
2021/10/29 17:45:22;;;;;;;7.73;7.13;;;9.20;99.90;;;;;;4960893;28;20771;-94
2021/10/29 17:47:50;;;;;;;6.77;6.07;;;9.20;99.90;;;;;;4966592;28;20674;-95
2021/10/29 17:50:21;;;;;;;7.53;6.93;;;9.10;99.90;;;;;;4973687;28;20665;-95
2021/10/29 17:52:51;;;;;;;9.33;6.43;;;9.00;99.90;;;;;;4969114;28;20673;-94
2021/10/29 17:55:19;;;;;;;8.80;7.57;;;8.90;99.90;;;;;;4970867;28;21160;-95
2021/10/29 17:57:48;;;;;;;9.13;7.33;;;9.00;99.90;;;;;;4971005;28;20633;-94
2021/10/29 18:00:16;;;;;;;8.90;7.90;;;9.00;99.90;;;;;;4973472;28;20629;-93
2021/10/29 18:02:43;;;;;;;8.40;7.70;;;8.90;99.90;;;;;;4973324;28;20691;-94
2021/10/29 18:05:13;;;;;;;8.43;7.50;;;9.00;99.90;;;;;;4975205;28;20657;-95
2021/10/29 18:07:45;;;;;;;10.37;9.47;;;8.80;99.90;;;;;;4971543;28;20677;-94
2021/10/29 18:10:13;;;;;;;13.60;12.30;;;8.70;99.90;;;;;;4969962;28;21069;-94
2021/10/29 18:12:41;;;;;;;11.03;10.10;;;8.90;99.90;;;;;;4982104;28;20684;-95
2021/10/29 18:15:13;;;;;;;11.50;9.80;;;8.80;99.90;;;;;;4970285;28;20670;-94
2021/10/29 18:17:48;;;;;;;13.77;10.97;;;8.80;99.90;;;;;;4985501;28;20857;-94
2021/10/29 18:20:15;;;;;;;11.83;10.80;;;8.70;99.90;;;;;;4983770;28;20629;-95
2021/10/29 18:22:46;;;;;;;12.07;10.70;;;8.70;99.90;;;;;;4970041;28;20773;-95
2021/10/29 18:25:20;;;;;;;11.53;10.37;;;8.60;99.90;;;;;;4970727;28;21093;-96
2021/10/29 18:27:48;;;;;;;9.83;9.03;;;8.60;99.90;;;;;;4976416;28;20718;-95
2021/10/29 18:30:21;;;;;;;12.30;10.97;;;8.40;99.90;;;;;;4972822;28;21176;-95
2021/10/29 18:32:49;;;;;;;12.17;10.80;;;8.40;99.90;;;;;;4966163;28;20673;-95
2021/10/29 18:35:19;;;;;;;13.13;11.93;;;8.40;99.90;;;;;;4975898;28;21351;-94
2021/10/29 18:37:48;;;;;;;12.97;11.77;;;8.50;99.90;;;;;;4960307;28;20638;-94
2021/10/29 18:40:18;;;;;;;14.50;13.00;;;8.50;99.90;;;;;;4971002;28;20996;-93
2021/10/29 18:42:47;;;;;;;12.80;11.60;;;8.40;99.90;;;;;;4970565;28;20760;-94
2021/10/29 18:45:14;;;;;;;13.07;11.83;;;8.30;99.90;;;;;;4975307;28;21231;-94
2021/10/29 18:47:44;;;;;;;11.90;10.60;;;8.30;99.90;;;;;;4974211;28;20665;-94
2021/10/29 18:50:13;;;;;;;13.00;11.90;;;8.20;99.90;;;;;;4970944;28;20641;-94
2021/10/29 18:52:40;;;;;;;14.50;13.00;;;8.20;99.90;;;;;;4979507;28;20745;-95
2021/10/29 18:55:10;;;;;;;13.23;12.03;;;8.20;99.90;;;;;;4974139;28;21264;-94
2021/10/29 18:57:37;;;;;;;12.47;11.43;;;8.20;99.90;;;;;;4976335;28;20636;-95
2021/10/29 19:00:06;;;;;;;15.03;13.67;;;8.10;99.90;;;;;;4987609;28;20681;-94
2021/10/29 19:02:39;;;;;;;14.03;12.83;;;8.00;99.90;;;;;;4988077;28;20689;-94
2021/10/29 19:05:07;;;;;;;13.90;12.83;;;8.10;99.90;;;;;;4987240;28;20634;-94
2021/10/29 19:07:35;;;;;;;13.33;12.10;;;8.00;99.90;;;;;;4987516;28;20646;-95
2021/10/29 19:13:09;;;;;;;16.13;14.53;;;8.00;99.90;;;;;;4988021;28;21339;-94
2021/10/29 19:15:41;;;;;;;15.47;13.23;;;8.00;99.90;;;;;;4987009;28;20645;-95
2021/10/29 19:18:12;;;;;;;16.37;14.40;;;8.00;99.90;;;;;;4976252;28;20609;-94
2021/10/29 19:20:40;;;;;;;15.40;14.00;;;7.90;99.90;;;;;;4988189;28;20626;-95
2021/10/29 19:26:29;;;;;;;15.27;13.90;;;8.00;99.90;;;;;;4985955;28;20665;-95
2021/10/29 19:28:57;;;;;;;16.97;15.27;;;7.90;99.90;;;;;;4983402;28;20661;-95
2021/10/29 19:31:26;;;;;;;17.37;15.87;;;7.90;99.90;;;;;;4993322;28;20652;-95
2021/10/29 19:33:53;;;;;;;17.83;16.17;;;7.90;99.90;;;;;;4987489;28;20704;-95
2021/10/29 19:36:25;;;;;;;16.93;15.53;;;7.90;99.90;;;;;;4988616;28;20621;-94
2021/10/29 19:39:00;;;;;;;17.40;16.00;;;7.90;99.90;;;;;;4990351;28;20628;-93
2021/10/29 19:41:37;;;;;;;17.53;16.17;;;7.90;99.90;;;;;;4988783;28;20653;-95
2021/10/29 19:46:59;;;;;;;19.10;17.50;;;7.80;99.90;;;;;;4991005;28;20638;-95
2021/10/29 19:49:30;;;;;;;19.90;18.10;;;7.80;99.90;;;;;;4991167;28;20613;-94
2021/10/29 19:51:58;;;;;;;20.03;18.33;;;7.80;99.90;;;;;;4992384;28;20653;-94
2021/10/29 19:54:30;;;;;;;19.27;17.80;;;7.80;99.90;;;;;;4999101;28;20609;-94
2021/10/29 19:57:08;;;;;;;17.93;16.50;;;7.80;99.90;;;;;;4983375;28;21220;-94
2021/10/29 19:59:37;;;;;;;20.20;18.30;;;7.80;99.90;;;;;;4988980;28;20636;-96
2021/10/29 20:02:06;;;;;;;20.90;19.07;;;7.70;99.90;;;;;;4994079;28;20653;-95
2021/10/29 20:04:38;;;;;;;21.07;19.37;;;7.70;99.90;;;;;;4985162;28;20630;-95
2021/10/29 20:07:08;;;;;;;20.30;18.60;;;7.50;99.90;;;;;;4990480;28;20637;-96
2021/10/29 20:09:38;;;;;;;22.90;20.80;;;7.50;99.90;;;;;;4985121;28;20729;-96
2021/10/29 20:12:09;;;;;;;21.10;19.20;;;7.50;99.90;;;;;;4984384;28;20737;-96
2021/10/29 20:20:14;;;;;;;22.93;20.80;;;7.40;99.90;;;;;;4982032;28;20661;-95
2021/10/29 20:22:41;;;;;;;23.10;21.10;;;7.50;99.90;;;;;;4987108;28;20664;-95
2021/10/29 20:25:10;;;;;;;22.70;20.50;;;7.50;99.90;;;;;;4986549;28;20684;-96
2021/10/29 20:27:39;;;;;;;23.73;21.53;;;7.30;99.90;;;;;;4971307;28;20675;-96
2021/10/29 20:30:07;;;;;;;23.03;21.13;;;7.30;99.90;;;;;;4987873;28;20638;-95
2021/10/29 20:32:34;;;;;;;23.60;21.53;;;7.30;99.90;;;;;;4981572;28;20723;-93
2021/10/29 20:35:01;;;;;;;24.73;22.43;;;7.30;99.90;;;;;;4984966;28;20668;-96
2021/10/29 20:37:28;;;;;;;23.40;21.37;;;7.30;99.90;;;;;;4987276;28;20645;-94
2021/10/29 20:39:56;;;;;;;23.47;21.37;;;7.30;99.90;;;;;;4984205;28;20628;-94
2021/10/29 20:42:26;;;;;;;23.10;21.10;;;7.30;99.90;;;;;;4985440;28;20662;-94
2021/10/29 20:44:54;;;;;;;25.00;22.73;;;7.20;99.90;;;;;;4987538;28;20653;-93
2021/10/29 20:47:22;;;;;;;23.87;21.70;;;7.20;99.90;;;;;;4981944;28;20645;-95
2021/10/29 20:49:50;;;;;;;24.13;21.97;;;7.10;99.90;;;;;;4988198;28;20656;-95
2021/10/29 20:52:18;;;;;;;23.70;21.70;;;7.10;99.90;;;;;;4985067;28;20667;-95
2021/10/29 20:54:46;;;;;;;24.80;22.60;;;7.10;99.90;;;;;;4988035;28;20722;-94
2021/10/29 20:57:15;;;;;;;23.03;21.23;;;7.00;99.90;;;;;;4987333;28;20624;-94
2021/10/29 20:59:43;;;;;;;23.73;21.60;;;7.00;99.90;;;;;;4991437;28;20627;-95
2021/10/29 21:02:17;;;;;;;23.33;21.20;;;7.00;99.90;;;;;;4986802;28;20673;-94
2021/10/29 21:04:50;;;;;;;23.40;21.50;;;6.80;99.90;;;;;;4993233;28;20645;-93
2021/10/29 21:07:18;;;;;;;24.90;22.50;;;6.80;99.90;;;;;;4997655;28;20662;-94
2021/10/29 21:09:49;;;;;;;23.37;21.40;;;6.80;99.90;;;;;;4985134;28;20695;-93
2021/10/29 21:12:17;;;;;;;23.53;21.47;;;6.80;99.90;;;;;;4989760;28;20653;-94
2021/10/29 21:14:45;;;;;;;22.97;20.90;;;6.70;99.90;;;;;;4984404;28;20863;-95
2021/10/29 21:17:15;;;;;;;23.00;21.13;;;6.80;99.90;;;;;;4983203;28;20620;-94
2021/10/29 21:19:42;;;;;;;21.70;19.90;;;6.80;99.90;;;;;;4993518;28;20628;-93
2021/10/29 21:22:09;;;;;;;22.07;20.13;;;6.60;99.90;;;;;;4996210;28;20656;-93
2021/10/29 21:24:40;;;;;;;23.23;21.13;;;6.60;99.90;;;;;;4993023;28;20662;-93
2021/10/29 21:27:08;;;;;;;22.43;20.53;;;6.60;99.90;;;;;;4994500;28;20629;-94
2021/10/29 21:29:35;;;;;;;23.40;21.27;;;6.50;99.90;;;;;;4993382;28;20744;-96
2021/10/29 21:32:02;;;;;;;22.73;20.83;;;6.50;99.90;;;;;;4991481;28;20680;-94
2021/10/29 21:34:31;;;;;;;20.70;18.70;;;6.50;99.90;;;;;;4990123;28;20641;-94
2021/10/29 21:37:09;;;;;;;23.30;21.30;;;6.40;99.90;;;;;;4984182;28;20640;-96
2021/10/29 21:55:57;;;;;;;23.60;21.60;;;6.10;99.90;;;;;;4986281;28;20613;-94